sensor_id;sensor_type;location;lat;lon;timestamp;pressure;altitude;pressure_sealevel;temperature
64960;BMP180;51487;52.266;10.542;2023-12-14T00:01:43;99703.00;;;4.20
64960;BMP180;51487;52.266;10.542;2023-12-14T00:04:11;99708.00;;;4.20
64960;BMP180;51487;52.266;10.542;2023-12-14T00:06:37;99703.00;;;4.10
64960;BMP180;51487;52.266;10.542;2023-12-14T00:09:02;99707.00;;;4.00
64960;BMP180;51487;52.266;10.542;2023-12-14T00:11:28;99710.00;;;4.00
64960;BMP180;51487;52.266;10.542;2023-12-14T00:13:53;99710.00;;;4.10
64960;BMP180;51487;52.266;10.542;2023-12-14T00:16:18;99708.00;;;4.10
64960;BMP180;51487;52.266;10.542;2023-12-14T00:18:44;99721.00;;;4.00
64960;BMP180;51487;52.266;10.542;2023-12-14T00:21:09;99718.00;;;4.10
64960;BMP180;51487;52.266;10.542;2023-12-14T00:23:35;99730.00;;;3.90
64960;BMP180;51487;52.266;10.542;2023-12-14T00:26:00;99734.00;;;4.00
64960;BMP180;51487;52.266;10.542;2023-12-14T00:28:27;99728.00;;;3.90
64960;BMP180;51487;52.266;10.542;2023-12-14T00:30:52;99732.00;;;3.90
64960;BMP180;51487;52.266;10.542;2023-12-14T00:33:18;99747.00;;;3.80
64960;BMP180;51487;52.266;10.542;2023-12-14T00:35:44;99749.00;;;3.80
64960;BMP180;51487;52.266;10.542;2023-12-14T00:38:09;99747.00;;;3.80
64960;BMP180;51487;52.266;10.542;2023-12-14T00:40:34;99760.00;;;3.70
64960;BMP180;51487;52.266;10.542;2023-12-14T00:43:00;99752.00;;;3.80
64960;BMP180;51487;52.266;10.542;2023-12-14T00:45:25;99767.00;;;3.80
64960;BMP180;51487;52.266;10.542;2023-12-14T00:47:51;99774.00;;;3.80
64960;BMP180;51487;52.266;10.542;2023-12-14T00:50:16;99779.00;;;3.80
64960;BMP180;51487;52.266;10.542;2023-12-14T00:52:42;99772.00;;;3.90
64960;BMP180;51487;52.266;10.542;2023-12-14T00:55:07;99776.00;;;3.90
64960;BMP180;51487;52.266;10.542;2023-12-14T00:57:33;99783.00;;;3.90
64960;BMP180;51487;52.266;10.542;2023-12-14T00:59:58;99788.00;;;3.80
64960;BMP180;51487;52.266;10.542;2023-12-14T01:02:24;99810.00;;;3.80
64960;BMP180;51487;52.266;10.542;2023-12-14T01:04:49;99809.00;;;3.80
64960;BMP180;51487;52.266;10.542;2023-12-14T01:07:14;99803.00;;;3.80
64960;BMP180;51487;52.266;10.542;2023-12-14T01:09:40;99807.00;;;3.90
64960;BMP180;51487;52.266;10.542;2023-12-14T01:12:06;99809.00;;;3.80
64960;BMP180;51487;52.266;10.542;2023-12-14T01:14:31;99810.00;;;3.90
64960;BMP180;51487;52.266;10.542;2023-12-14T01:16:57;99818.00;;;3.80
64960;BMP180;51487;52.266;10.542;2023-12-14T01:19:22;99828.00;;;3.90
64960;BMP180;51487;52.266;10.542;2023-12-14T01:21:48;99827.00;;;4.00
64960;BMP180;51487;52.266;10.542;2023-12-14T01:24:14;99837.00;;;4.10
64960;BMP180;51487;52.266;10.542;2023-12-14T01:26:39;99844.00;;;4.00
64960;BMP180;51487;52.266;10.542;2023-12-14T01:29:05;99839.00;;;3.80
64960;BMP180;51487;52.266;10.542;2023-12-14T01:31:30;99843.00;;;3.80
64960;BMP180;51487;52.266;10.542;2023-12-14T01:33:56;99858.00;;;3.70
64960;BMP180;51487;52.266;10.542;2023-12-14T01:36:23;99855.00;;;3.70
64960;BMP180;51487;52.266;10.542;2023-12-14T01:38:49;99862.00;;;3.70
64960;BMP180;51487;52.266;10.542;2023-12-14T01:41:16;99869.00;;;3.70
64960;BMP180;51487;52.266;10.542;2023-12-14T01:43:42;99870.00;;;3.70
64960;BMP180;51487;52.266;10.542;2023-12-14T01:46:08;99880.00;;;3.80
64960;BMP180;51487;52.266;10.542;2023-12-14T01:48:33;99885.00;;;3.70
64960;BMP180;51487;52.266;10.542;2023-12-14T01:50:59;99885.00;;;3.70
64960;BMP180;51487;52.266;10.542;2023-12-14T01:53:24;99890.00;;;3.80
64960;BMP180;51487;52.266;10.542;2023-12-14T01:55:50;99890.00;;;3.80
64960;BMP180;51487;52.266;10.542;2023-12-14T01:58:16;99889.00;;;3.80
64960;BMP180;51487;52.266;10.542;2023-12-14T02:01:18;99898.00;;;3.60
64960;BMP180;51487;52.266;10.542;2023-12-14T02:03:54;99894.00;;;3.50
64960;BMP180;51487;52.266;10.542;2023-12-14T02:06:20;99907.00;;;3.50
64960;BMP180;51487;52.266;10.542;2023-12-14T02:08:45;99906.00;;;3.50
64960;BMP180;51487;52.266;10.542;2023-12-14T02:11:11;99912.00;;;3.60
64960;BMP180;51487;52.266;10.542;2023-12-14T02:13:37;99907.00;;;3.60
64960;BMP180;51487;52.266;10.542;2023-12-14T02:16:03;99922.00;;;3.40
64960;BMP180;51487;52.266;10.542;2023-12-14T02:18:29;99924.00;;;3.50
64960;BMP180;51487;52.266;10.542;2023-12-14T02:20:54;99919.00;;;3.50
64960;BMP180;51487;52.266;10.542;2023-12-14T02:23:20;99924.00;;;3.40
64960;BMP180;51487;52.266;10.542;2023-12-14T02:25:45;99929.00;;;3.50
64960;BMP180;51487;52.266;10.542;2023-12-14T02:28:11;99926.00;;;3.40
64960;BMP180;51487;52.266;10.542;2023-12-14T02:30:36;99932.00;;;3.40
64960;BMP180;51487;52.266;10.542;2023-12-14T02:33:02;99949.00;;;3.40
64960;BMP180;51487;52.266;10.542;2023-12-14T02:35:27;99931.00;;;3.40
64960;BMP180;51487;52.266;10.542;2023-12-14T02:37:53;99940.00;;;3.30
64960;BMP180;51487;52.266;10.542;2023-12-14T02:40:18;99938.00;;;3.30
64960;BMP180;51487;52.266;10.542;2023-12-14T02:42:44;99941.00;;;3.40
64960;BMP180;51487;52.266;10.542;2023-12-14T02:45:09;99947.00;;;3.40
64960;BMP180;51487;52.266;10.542;2023-12-14T02:47:35;99954.00;;;3.40
64960;BMP180;51487;52.266;10.542;2023-12-14T02:50:01;99961.00;;;3.50
64960;BMP180;51487;52.266;10.542;2023-12-14T02:52:26;99965.00;;;3.40
64960;BMP180;51487;52.266;10.542;2023-12-14T02:54:52;99955.00;;;3.40
64960;BMP180;51487;52.266;10.542;2023-12-14T02:57:17;99963.00;;;3.50
64960;BMP180;51487;52.266;10.542;2023-12-14T02:59:43;99962.00;;;3.40
64960;BMP180;51487;52.266;10.542;2023-12-14T03:02:08;99962.00;;;3.40
64960;BMP180;51487;52.266;10.542;2023-12-14T03:04:34;99966.00;;;3.40
64960;BMP180;51487;52.266;10.542;2023-12-14T03:07:03;99969.00;;;3.30
64960;BMP180;51487;52.266;10.542;2023-12-14T03:09:28;99965.00;;;3.30
64960;BMP180;51487;52.266;10.542;2023-12-14T03:11:54;99962.00;;;3.40
64960;BMP180;51487;52.266;10.542;2023-12-14T03:14:20;99968.00;;;3.40
64960;BMP180;51487;52.266;10.542;2023-12-14T03:16:46;99971.00;;;3.40
64960;BMP180;51487;52.266;10.542;2023-12-14T03:19:13;99976.00;;;3.40
64960;BMP180;51487;52.266;10.542;2023-12-14T03:21:38;99972.00;;;3.40
64960;BMP180;51487;52.266;10.542;2023-12-14T03:24:04;99976.00;;;3.40
64960;BMP180;51487;52.266;10.542;2023-12-14T03:26:30;99978.00;;;3.30
64960;BMP180;51487;52.266;10.542;2023-12-14T03:28:56;99987.00;;;3.30
64960;BMP180;51487;52.266;10.542;2023-12-14T03:31:21;99990.00;;;3.20
64960;BMP180;51487;52.266;10.542;2023-12-14T03:33:47;99995.00;;;3.20
64960;BMP180;51487;52.266;10.542;2023-12-14T03:36:13;99997.00;;;3.10
64960;BMP180;51487;52.266;10.542;2023-12-14T03:38:38;99998.00;;;3.00
64960;BMP180;51487;52.266;10.542;2023-12-14T03:41:03;100004.00;;;3.10
64960;BMP180;51487;52.266;10.542;2023-12-14T03:43:29;100002.00;;;3.10
64960;BMP180;51487;52.266;10.542;2023-12-14T03:45:54;100009.00;;;3.20
64960;BMP180;51487;52.266;10.542;2023-12-14T03:48:20;100026.00;;;3.30
64960;BMP180;51487;52.266;10.542;2023-12-14T03:50:45;100028.00;;;3.30
64960;BMP180;51487;52.266;10.542;2023-12-14T03:53:11;100021.00;;;3.00
64960;BMP180;51487;52.266;10.542;2023-12-14T03:55:36;100016.00;;;3.10
64960;BMP180;51487;52.266;10.542;2023-12-14T03:58:02;100025.00;;;3.00
64960;BMP180;51487;52.266;10.542;2023-12-14T04:00:27;100028.00;;;3.10
64960;BMP180;51487;52.266;10.542;2023-12-14T04:02:53;100039.00;;;3.30
64960;BMP180;51487;52.266;10.542;2023-12-14T04:05:18;100037.00;;;3.20
64960;BMP180;51487;52.266;10.542;2023-12-14T04:07:44;100040.00;;;3.20
64960;BMP180;51487;52.266;10.542;2023-12-14T04:10:10;100043.00;;;3.20
64960;BMP180;51487;52.266;10.542;2023-12-14T04:12:38;100048.00;;;3.20
64960;BMP180;51487;52.266;10.542;2023-12-14T04:15:04;100057.00;;;3.20
64960;BMP180;51487;52.266;10.542;2023-12-14T04:17:31;100062.00;;;3.10
64960;BMP180;51487;52.266;10.542;2023-12-14T04:19:57;100061.00;;;3.10
64960;BMP180;51487;52.266;10.542;2023-12-14T04:22:23;100073.00;;;3.10
64960;BMP180;51487;52.266;10.542;2023-12-14T04:24:49;100063.00;;;2.90
64960;BMP180;51487;52.266;10.542;2023-12-14T04:27:15;100077.00;;;3.00
64960;BMP180;51487;52.266;10.542;2023-12-14T04:29:41;100076.00;;;3.10
64960;BMP180;51487;52.266;10.542;2023-12-14T04:32:07;100089.00;;;3.10
64960;BMP180;51487;52.266;10.542;2023-12-14T04:34:32;100096.00;;;3.20
64960;BMP180;51487;52.266;10.542;2023-12-14T04:36:58;100100.00;;;3.20
64960;BMP180;51487;52.266;10.542;2023-12-14T04:39:24;100095.00;;;3.20
64960;BMP180;51487;52.266;10.542;2023-12-14T04:41:50;100092.00;;;3.20
64960;BMP180;51487;52.266;10.542;2023-12-14T04:44:18;100102.00;;;3.30
64960;BMP180;51487;52.266;10.542;2023-12-14T04:46:49;100111.00;;;3.20
64960;BMP180;51487;52.266;10.542;2023-12-14T04:49:16;100107.00;;;3.30
64960;BMP180;51487;52.266;10.542;2023-12-14T04:51:41;100116.00;;;3.30
64960;BMP180;51487;52.266;10.542;2023-12-14T04:54:08;100125.00;;;3.20
64960;BMP180;51487;52.266;10.542;2023-12-14T04:56:33;100123.00;;;3.20
64960;BMP180;51487;52.266;10.542;2023-12-14T04:58:59;100131.00;;;3.30
64960;BMP180;51487;52.266;10.542;2023-12-14T05:01:24;100141.00;;;3.30
64960;BMP180;51487;52.266;10.542;2023-12-14T05:03:53;100140.00;;;3.10
64960;BMP180;51487;52.266;10.542;2023-12-14T05:06:19;100144.00;;;3.10
64960;BMP180;51487;52.266;10.542;2023-12-14T05:08:44;100148.00;;;3.10
64960;BMP180;51487;52.266;10.542;2023-12-14T05:11:12;100152.00;;;3.20
64960;BMP180;51487;52.266;10.542;2023-12-14T05:13:38;100145.00;;;3.20
64960;BMP180;51487;52.266;10.542;2023-12-14T05:16:03;100156.00;;;3.30
64960;BMP180;51487;52.266;10.542;2023-12-14T05:18:29;100156.00;;;3.30
64960;BMP180;51487;52.266;10.542;2023-12-14T05:20:55;100155.00;;;3.40
64960;BMP180;51487;52.266;10.542;2023-12-14T05:23:20;100168.00;;;3.30
64960;BMP180;51487;52.266;10.542;2023-12-14T05:25:46;100166.00;;;3.40
64960;BMP180;51487;52.266;10.542;2023-12-14T05:28:11;100170.00;;;3.30
64960;BMP180;51487;52.266;10.542;2023-12-14T05:30:36;100175.00;;;3.10
64960;BMP180;51487;52.266;10.542;2023-12-14T05:33:02;100176.00;;;3.10
64960;BMP180;51487;52.266;10.542;2023-12-14T05:35:28;100188.00;;;3.30
64960;BMP180;51487;52.266;10.542;2023-12-14T05:37:53;100187.00;;;3.20
64960;BMP180;51487;52.266;10.542;2023-12-14T05:40:19;100185.00;;;3.30
64960;BMP180;51487;52.266;10.542;2023-12-14T05:42:44;100179.00;;;3.20
64960;BMP180;51487;52.266;10.542;2023-12-14T05:45:10;100199.00;;;3.40
64960;BMP180;51487;52.266;10.542;2023-12-14T05:47:36;100196.00;;;3.30
64960;BMP180;51487;52.266;10.542;2023-12-14T05:50:03;100205.00;;;3.20
64960;BMP180;51487;52.266;10.542;2023-12-14T05:52:29;100204.00;;;3.30
64960;BMP180;51487;52.266;10.542;2023-12-14T05:54:55;100214.00;;;3.40
64960;BMP180;51487;52.266;10.542;2023-12-14T05:57:21;100212.00;;;3.30
64960;BMP180;51487;52.266;10.542;2023-12-14T05:59:47;100216.00;;;3.40
64960;BMP180;51487;52.266;10.542;2023-12-14T06:02:12;100217.00;;;3.30
64960;BMP180;51487;52.266;10.542;2023-12-14T06:04:38;100228.00;;;3.40
64960;BMP180;51487;52.266;10.542;2023-12-14T06:07:03;100235.00;;;3.30
64960;BMP180;51487;52.266;10.542;2023-12-14T06:09:29;100231.00;;;3.10
64960;BMP180;51487;52.266;10.542;2023-12-14T06:12:00;100244.00;;;3.10
64960;BMP180;51487;52.266;10.542;2023-12-14T06:14:29;100242.00;;;3.10
64960;BMP180;51487;52.266;10.542;2023-12-14T06:16:55;100253.00;;;3.20
64960;BMP180;51487;52.266;10.542;2023-12-14T06:19:21;100264.00;;;3.20
64960;BMP180;51487;52.266;10.542;2023-12-14T06:21:47;100250.00;;;3.10
64960;BMP180;51487;52.266;10.542;2023-12-14T06:24:12;100250.00;;;3.20
64960;BMP180;51487;52.266;10.542;2023-12-14T06:26:42;100251.00;;;3.10
64960;BMP180;51487;52.266;10.542;2023-12-14T06:29:09;100248.00;;;3.00
64960;BMP180;51487;52.266;10.542;2023-12-14T06:31:35;100244.00;;;3.10
64960;BMP180;51487;52.266;10.542;2023-12-14T06:34:00;100248.00;;;3.10
64960;BMP180;51487;52.266;10.542;2023-12-14T06:36:29;100256.00;;;3.10
64960;BMP180;51487;52.266;10.542;2023-12-14T06:38:56;100259.00;;;3.00
64960;BMP180;51487;52.266;10.542;2023-12-14T06:41:22;100256.00;;;3.00
64960;BMP180;51487;52.266;10.542;2023-12-14T06:43:49;100267.00;;;3.10
64960;BMP180;51487;52.266;10.542;2023-12-14T06:46:15;100270.00;;;3.10
64960;BMP180;51487;52.266;10.542;2023-12-14T06:48:41;100276.00;;;3.10
64960;BMP180;51487;52.266;10.542;2023-12-14T06:51:07;100281.00;;;3.20
64960;BMP180;51487;52.266;10.542;2023-12-14T06:53:34;100293.00;;;3.20
64960;BMP180;51487;52.266;10.542;2023-12-14T06:55:59;100291.00;;;3.20
64960;BMP180;51487;52.266;10.542;2023-12-14T06:58:25;100297.00;;;3.10
64960;BMP180;51487;52.266;10.542;2023-12-14T07:00:50;100309.00;;;3.30
64960;BMP180;51487;52.266;10.542;2023-12-14T07:03:16;100297.00;;;3.30
64960;BMP180;51487;52.266;10.542;2023-12-14T07:05:41;100302.00;;;3.20
64960;BMP180;51487;52.266;10.542;2023-12-14T07:08:07;100299.00;;;3.20
64960;BMP180;51487;52.266;10.542;2023-12-14T07:10:32;100308.00;;;3.10
64960;BMP180;51487;52.266;10.542;2023-12-14T07:12:58;100320.00;;;2.90
64960;BMP180;51487;52.266;10.542;2023-12-14T07:15:24;100316.00;;;3.10
64960;BMP180;51487;52.266;10.542;2023-12-14T07:17:50;100330.00;;;3.20
64960;BMP180;51487;52.266;10.542;2023-12-14T07:20:15;100320.00;;;3.10
64960;BMP180;51487;52.266;10.542;2023-12-14T07:22:41;100335.00;;;3.20
64960;BMP180;51487;52.266;10.542;2023-12-14T07:25:07;100336.00;;;3.20
64960;BMP180;51487;52.266;10.542;2023-12-14T07:27:33;100331.00;;;3.20
64960;BMP180;51487;52.266;10.542;2023-12-14T07:29:59;100353.00;;;3.30
64960;BMP180;51487;52.266;10.542;2023-12-14T07:32:25;100358.00;;;3.20
64960;BMP180;51487;52.266;10.542;2023-12-14T07:34:50;100355.00;;;3.30
64960;BMP180;51487;52.266;10.542;2023-12-14T07:37:15;100363.00;;;3.30
64960;BMP180;51487;52.266;10.542;2023-12-14T07:39:41;100365.00;;;3.40
64960;BMP180;51487;52.266;10.542;2023-12-14T07:42:06;100373.00;;;3.50
64960;BMP180;51487;52.266;10.542;2023-12-14T07:44:32;100379.00;;;3.30
64960;BMP180;51487;52.266;10.542;2023-12-14T07:46:59;100372.00;;;3.30
64960;BMP180;51487;52.266;10.542;2023-12-14T07:49:25;100376.00;;;3.30
64960;BMP180;51487;52.266;10.542;2023-12-14T07:51:51;100381.00;;;3.50
64960;BMP180;51487;52.266;10.542;2023-12-14T07:54:17;100393.00;;;3.40
64960;BMP180;51487;52.266;10.542;2023-12-14T07:56:43;100388.00;;;3.40
64960;BMP180;51487;52.266;10.542;2023-12-14T07:59:09;100391.00;;;3.50
64960;BMP180;51487;52.266;10.542;2023-12-14T08:01:35;100393.00;;;3.50
64960;BMP180;51487;52.266;10.542;2023-12-14T08:04:02;100398.00;;;3.30
64960;BMP180;51487;52.266;10.542;2023-12-14T08:06:28;100399.00;;;3.40
64960;BMP180;51487;52.266;10.542;2023-12-14T08:08:55;100409.00;;;3.30
64960;BMP180;51487;52.266;10.542;2023-12-14T08:11:23;100407.00;;;3.40
64960;BMP180;51487;52.266;10.542;2023-12-14T08:13:49;100406.00;;;3.30
64960;BMP180;51487;52.266;10.542;2023-12-14T08:16:15;100410.00;;;3.40
64960;BMP180;51487;52.266;10.542;2023-12-14T08:18:42;100419.00;;;3.40
64960;BMP180;51487;52.266;10.542;2023-12-14T08:21:11;100421.00;;;3.30
64960;BMP180;51487;52.266;10.542;2023-12-14T08:23:36;100423.00;;;3.40
64960;BMP180;51487;52.266;10.542;2023-12-14T08:26:02;100432.00;;;3.50
64960;BMP180;51487;52.266;10.542;2023-12-14T08:28:28;100436.00;;;3.40
64960;BMP180;51487;52.266;10.542;2023-12-14T08:30:53;100436.00;;;3.40
64960;BMP180;51487;52.266;10.542;2023-12-14T08:33:19;100446.00;;;3.50
64960;BMP180;51487;52.266;10.542;2023-12-14T08:35:44;100446.00;;;3.50
64960;BMP180;51487;52.266;10.542;2023-12-14T08:38:10;100455.00;;;3.40
64960;BMP180;51487;52.266;10.542;2023-12-14T08:40:36;100458.00;;;3.40
64960;BMP180;51487;52.266;10.542;2023-12-14T08:43:03;100468.00;;;3.40
64960;BMP180;51487;52.266;10.542;2023-12-14T08:45:28;100478.00;;;3.30
64960;BMP180;51487;52.266;10.542;2023-12-14T08:47:54;100475.00;;;3.30
64960;BMP180;51487;52.266;10.542;2023-12-14T08:50:20;100477.00;;;3.10
64960;BMP180;51487;52.266;10.542;2023-12-14T08:52:46;100485.00;;;3.10
64960;BMP180;51487;52.266;10.542;2023-12-14T08:55:12;100496.00;;;3.20
64960;BMP180;51487;52.266;10.542;2023-12-14T08:57:38;100507.00;;;3.20
64960;BMP180;51487;52.266;10.542;2023-12-14T09:00:05;100509.00;;;3.20
64960;BMP180;51487;52.266;10.542;2023-12-14T09:02:32;100518.00;;;3.20
64960;BMP180;51487;52.266;10.542;2023-12-14T09:04:57;100513.00;;;3.20
64960;BMP180;51487;52.266;10.542;2023-12-14T09:07:23;100517.00;;;3.30
64960;BMP180;51487;52.266;10.542;2023-12-14T09:09:48;100522.00;;;3.40
64960;BMP180;51487;52.266;10.542;2023-12-14T09:12:14;100521.00;;;3.50
64960;BMP180;51487;52.266;10.542;2023-12-14T09:14:39;100519.00;;;3.60
64960;BMP180;51487;52.266;10.542;2023-12-14T09:17:05;100534.00;;;3.60
64960;BMP180;51487;52.266;10.542;2023-12-14T09:19:30;100535.00;;;3.60
64960;BMP180;51487;52.266;10.542;2023-12-14T09:21:56;100545.00;;;3.60
64960;BMP180;51487;52.266;10.542;2023-12-14T09:24:23;100548.00;;;3.40
64960;BMP180;51487;52.266;10.542;2023-12-14T09:26:48;100548.00;;;3.30
64960;BMP180;51487;52.266;10.542;2023-12-14T09:29:14;100551.00;;;3.20
64960;BMP180;51487;52.266;10.542;2023-12-14T09:31:45;100559.00;;;3.20
64960;BMP180;51487;52.266;10.542;2023-12-14T09:34:11;100556.00;;;3.30
64960;BMP180;51487;52.266;10.542;2023-12-14T09:36:37;100560.00;;;3.40
64960;BMP180;51487;52.266;10.542;2023-12-14T09:39:04;100560.00;;;3.20
64960;BMP180;51487;52.266;10.542;2023-12-14T09:41:30;100579.00;;;3.20
64960;BMP180;51487;52.266;10.542;2023-12-14T09:43:55;100578.00;;;3.20
64960;BMP180;51487;52.266;10.542;2023-12-14T09:46:21;100589.00;;;3.20
64960;BMP180;51487;52.266;10.542;2023-12-14T09:48:50;100586.00;;;3.30
64960;BMP180;51487;52.266;10.542;2023-12-14T09:51:16;100587.00;;;3.40
64960;BMP180;51487;52.266;10.542;2023-12-14T09:53:42;100591.00;;;3.40
64960;BMP180;51487;52.266;10.542;2023-12-14T09:56:08;100604.00;;;3.20
64960;BMP180;51487;52.266;10.542;2023-12-14T09:58:34;100593.00;;;3.40
64960;BMP180;51487;52.266;10.542;2023-12-14T10:00:59;100601.00;;;3.10
64960;BMP180;51487;52.266;10.542;2023-12-14T10:03:30;100604.00;;;3.30
64960;BMP180;51487;52.266;10.542;2023-12-14T10:05:58;100606.00;;;3.50
64960;BMP180;51487;52.266;10.542;2023-12-14T10:08:26;100615.00;;;3.30
64960;BMP180;51487;52.266;10.542;2023-12-14T10:10:53;100619.00;;;3.30
64960;BMP180;51487;52.266;10.542;2023-12-14T10:13:22;100619.00;;;3.40
64960;BMP180;51487;52.266;10.542;2023-12-14T10:16:02;100619.00;;;3.30
64960;BMP180;51487;52.266;10.542;2023-12-14T10:18:28;100621.00;;;3.40
64960;BMP180;51487;52.266;10.542;2023-12-14T10:20:54;100614.00;;;3.40
64960;BMP180;51487;52.266;10.542;2023-12-14T10:23:21;100616.00;;;3.40
64960;BMP180;51487;52.266;10.542;2023-12-14T10:25:46;100618.00;;;3.50
64960;BMP180;51487;52.266;10.542;2023-12-14T10:28:15;100620.00;;;3.40
64960;BMP180;51487;52.266;10.542;2023-12-14T10:30:42;100631.00;;;3.30
64960;BMP180;51487;52.266;10.542;2023-12-14T10:33:07;100636.00;;;3.30
64960;BMP180;51487;52.266;10.542;2023-12-14T10:35:34;100627.00;;;3.10
64960;BMP180;51487;52.266;10.542;2023-12-14T10:38:03;100633.00;;;3.30
64960;BMP180;51487;52.266;10.542;2023-12-14T10:40:31;100638.00;;;3.30
64960;BMP180;51487;52.266;10.542;2023-12-14T10:43:01;100635.00;;;3.10
64960;BMP180;51487;52.266;10.542;2023-12-14T10:45:31;100641.00;;;3.00
64960;BMP180;51487;52.266;10.542;2023-12-14T10:47:59;100641.00;;;3.10
64960;BMP180;51487;52.266;10.542;2023-12-14T10:50:29;100647.00;;;3.30
64960;BMP180;51487;52.266;10.542;2023-12-14T10:52:58;100656.00;;;3.00
64960;BMP180;51487;52.266;10.542;2023-12-14T10:55:39;100649.00;;;3.10
64960;BMP180;51487;52.266;10.542;2023-12-14T10:58:11;100654.00;;;3.10
64960;BMP180;51487;52.266;10.542;2023-12-14T11:00:37;100658.00;;;3.10
64960;BMP180;51487;52.266;10.542;2023-12-14T11:03:06;100667.00;;;3.10
64960;BMP180;51487;52.266;10.542;2023-12-14T11:05:34;100673.00;;;3.30
64960;BMP180;51487;52.266;10.542;2023-12-14T11:08:03;100663.00;;;3.10
64960;BMP180;51487;52.266;10.542;2023-12-14T11:10:41;100671.00;;;3.10
64960;BMP180;51487;52.266;10.542;2023-12-14T11:13:13;100671.00;;;3.10
64960;BMP180;51487;52.266;10.542;2023-12-14T11:15:50;100676.00;;;3.20
64960;BMP180;51487;52.266;10.542;2023-12-14T11:18:21;100688.00;;;3.20
64960;BMP180;51487;52.266;10.542;2023-12-14T11:20:53;100679.00;;;3.10
64960;BMP180;51487;52.266;10.542;2023-12-14T11:25:51;100690.00;;;3.30
64960;BMP180;51487;52.266;10.542;2023-12-14T11:28:19;100691.00;;;3.30
64960;BMP180;51487;52.266;10.542;2023-12-14T11:30:45;100688.00;;;3.50
64960;BMP180;51487;52.266;10.542;2023-12-14T11:33:12;100694.00;;;3.70
64960;BMP180;51487;52.266;10.542;2023-12-14T11:35:39;100686.00;;;3.50
64960;BMP180;51487;52.266;10.542;2023-12-14T11:38:05;100697.00;;;3.50
64960;BMP180;51487;52.266;10.542;2023-12-14T11:40:41;100696.00;;;3.70
64960;BMP180;51487;52.266;10.542;2023-12-14T11:43:07;100706.00;;;3.60
64960;BMP180;51487;52.266;10.542;2023-12-14T11:45:38;100713.00;;;3.60
64960;BMP180;51487;52.266;10.542;2023-12-14T11:48:09;100706.00;;;3.60
64960;BMP180;51487;52.266;10.542;2023-12-14T11:50:40;100720.00;;;3.70
64960;BMP180;51487;52.266;10.542;2023-12-14T11:53:08;100723.00;;;3.40
64960;BMP180;51487;52.266;10.542;2023-12-14T11:55:35;100718.00;;;3.40
64960;BMP180;51487;52.266;10.542;2023-12-14T11:58:02;100718.00;;;3.40
64960;BMP180;51487;52.266;10.542;2023-12-14T12:00:29;100731.00;;;3.50
64960;BMP180;51487;52.266;10.542;2023-12-14T12:03:18;100732.00;;;3.40
64960;BMP180;51487;52.266;10.542;2023-12-14T12:05:48;100729.00;;;3.40
64960;BMP180;51487;52.266;10.542;2023-12-14T12:08:19;100742.00;;;3.20
64960;BMP180;51487;52.266;10.542;2023-12-14T12:10:47;100735.00;;;3.50
64960;BMP180;51487;52.266;10.542;2023-12-14T12:13:19;100739.00;;;3.60
64960;BMP180;51487;52.266;10.542;2023-12-14T12:15:46;100749.00;;;3.60
64960;BMP180;51487;52.266;10.542;2023-12-14T12:18:14;100748.00;;;3.50
64960;BMP180;51487;52.266;10.542;2023-12-14T12:20:42;100744.00;;;3.40
64960;BMP180;51487;52.266;10.542;2023-12-14T12:23:08;100745.00;;;3.40
64960;BMP180;51487;52.266;10.542;2023-12-14T12:25:34;100743.00;;;3.30
64960;BMP180;51487;52.266;10.542;2023-12-14T12:28:01;100742.00;;;3.30
64960;BMP180;51487;52.266;10.542;2023-12-14T12:30:27;100733.00;;;3.20
64960;BMP180;51487;52.266;10.542;2023-12-14T12:32:53;100743.00;;;3.30
64960;BMP180;51487;52.266;10.542;2023-12-14T12:35:21;100748.00;;;3.50
64960;BMP180;51487;52.266;10.542;2023-12-14T12:37:50;100747.00;;;3.30
64960;BMP180;51487;52.266;10.542;2023-12-14T12:40:23;100745.00;;;3.20
64960;BMP180;51487;52.266;10.542;2023-12-14T12:42:51;100746.00;;;3.30
64960;BMP180;51487;52.266;10.542;2023-12-14T12:45:17;100750.00;;;3.40
64960;BMP180;51487;52.266;10.542;2023-12-14T12:47:43;100757.00;;;3.30
64960;BMP180;51487;52.266;10.542;2023-12-14T12:50:10;100749.00;;;3.40
64960;BMP180;51487;52.266;10.542;2023-12-14T12:52:35;100758.00;;;3.30
64960;BMP180;51487;52.266;10.542;2023-12-14T12:55:02;100757.00;;;3.40
64960;BMP180;51487;52.266;10.542;2023-12-14T12:57:29;100762.00;;;3.40
64960;BMP180;51487;52.266;10.542;2023-12-14T12:59:55;100761.00;;;3.30
64960;BMP180;51487;52.266;10.542;2023-12-14T13:02:20;100767.00;;;3.30
64960;BMP180;51487;52.266;10.542;2023-12-14T13:04:46;100763.00;;;3.40
64960;BMP180;51487;52.266;10.542;2023-12-14T13:07:12;100765.00;;;3.60
64960;BMP180;51487;52.266;10.542;2023-12-14T13:09:38;100774.00;;;3.40
64960;BMP180;51487;52.266;10.542;2023-12-14T13:12:04;100774.00;;;3.40
64960;BMP180;51487;52.266;10.542;2023-12-14T13:14:30;100783.00;;;3.30
64960;BMP180;51487;52.266;10.542;2023-12-14T13:16:56;100786.00;;;3.20
64960;BMP180;51487;52.266;10.542;2023-12-14T13:19:23;100781.00;;;3.20
64960;BMP180;51487;52.266;10.542;2023-12-14T13:21:49;100787.00;;;3.30
64960;BMP180;51487;52.266;10.542;2023-12-14T13:24:15;100781.00;;;3.20
64960;BMP180;51487;52.266;10.542;2023-12-14T13:26:40;100791.00;;;3.30
64960;BMP180;51487;52.266;10.542;2023-12-14T13:29:06;100792.00;;;3.30
64960;BMP180;51487;52.266;10.542;2023-12-14T13:31:31;100789.00;;;3.30
64960;BMP180;51487;52.266;10.542;2023-12-14T13:33:56;100806.00;;;3.50
64960;BMP180;51487;52.266;10.542;2023-12-14T13:36:22;100804.00;;;3.40
64960;BMP180;51487;52.266;10.542;2023-12-14T13:38:48;100807.00;;;3.40
64960;BMP180;51487;52.266;10.542;2023-12-14T13:41:14;100812.00;;;3.40
64960;BMP180;51487;52.266;10.542;2023-12-14T13:43:40;100818.00;;;3.40
64960;BMP180;51487;52.266;10.542;2023-12-14T13:46:05;100821.00;;;3.40
64960;BMP180;51487;52.266;10.542;2023-12-14T13:48:31;100825.00;;;3.40
64960;BMP180;51487;52.266;10.542;2023-12-14T13:50:57;100831.00;;;3.30
64960;BMP180;51487;52.266;10.542;2023-12-14T13:53:23;100837.00;;;3.20
64960;BMP180;51487;52.266;10.542;2023-12-14T13:55:49;100837.00;;;3.40
64960;BMP180;51487;52.266;10.542;2023-12-14T13:58:15;100847.00;;;3.50